Newnan, Georgia
Current Conditions -  °F | °C
As of 9:35 AM on Friday 28 Nov 2014 (Local Time) from KCCO Reporting Station
Clear Clear  
Wind Chill: 26°   Ceiling: Unl
Heat Index: 34°   Visibility: 10mi
Dew Point: 25°   Wind: 10mph
Humidity: 69%   Direction: 350°N
Pressure: 30.4"   Gusts: NA
Location:  33.38°N, 84.8°W
Report Text: KCCO 281435Z AUTO 35009KT 10SM CLR 01/M04 A3040 RMK AO2 T00111041
Loading
Personal Weather Stations






























Interactive Weather Map New forecast layout! Learn more

10-Day Weather Forecast

Advertisements
Track Severe Weather on mobile